createdAt,value
2018-12-04T00:01:46.078Z,0.80
2018-12-04T00:04:15.410Z,0.80
2018-12-04T00:06:44.206Z,0.70
2018-12-04T00:09:12.993Z,0.80
2018-12-04T00:11:41.784Z,0.90
2018-12-04T00:14:11.094Z,0.70
2018-12-04T00:16:39.886Z,0.73
2018-12-04T00:19:08.661Z,0.73
2018-12-04T00:21:37.454Z,0.80
2018-12-04T00:24:06.239Z,0.70
2018-12-04T00:26:35.033Z,0.80
2018-12-04T00:29:04.154Z,0.70
2018-12-04T00:31:32.944Z,0.80
2018-12-04T00:34:01.788Z,0.70
2018-12-04T00:36:30.591Z,0.70
2018-12-04T00:38:59.391Z,0.80
2018-12-04T00:41:28.197Z,0.70
2018-12-04T00:43:56.967Z,0.60
2018-12-04T00:46:25.747Z,0.70
2018-12-04T00:48:54.534Z,0.70
2018-12-04T00:51:23.326Z,0.90
2018-12-04T00:53:52.144Z,0.70
2018-12-04T00:56:20.911Z,0.70
2018-12-04T00:58:49.928Z,0.90
2018-12-04T01:01:18.715Z,0.80
2018-12-04T01:03:47.504Z,0.80
2018-12-04T01:06:16.294Z,0.73
2018-12-04T01:08:45.098Z,0.70
2018-12-04T01:11:13.934Z,0.80
2018-12-04T01:13:42.730Z,0.77
2018-12-04T01:16:11.520Z,0.87
2018-12-04T01:18:40.315Z,0.80
2018-12-04T01:21:09.102Z,0.80
2018-12-04T01:23:38.324Z,0.70
2018-12-04T01:26:07.078Z,0.70
2018-12-04T01:28:36.382Z,0.90
2018-12-04T01:31:05.169Z,0.80
2018-12-04T01:33:33.965Z,0.70
2018-12-04T01:36:03.058Z,0.80
2018-12-04T01:38:31.853Z,0.80
2018-12-04T01:41:00.641Z,0.80
2018-12-04T01:43:29.442Z,0.70
2018-12-04T01:45:58.228Z,0.70
2018-12-04T01:48:27.028Z,0.87
2018-12-04T01:50:55.821Z,0.80
2018-12-04T01:53:24.844Z,0.70
2018-12-04T01:55:53.670Z,0.60
2018-12-04T01:58:22.484Z,0.73
2018-12-04T02:00:51.259Z,0.70
2018-12-04T02:03:20.037Z,0.80
2018-12-04T02:05:49.142Z,0.80
2018-12-04T02:08:17.945Z,0.80
2018-12-04T02:10:46.739Z,0.80
2018-12-04T02:13:15.552Z,0.80
2018-12-04T02:15:44.350Z,0.80
2018-12-04T02:18:13.149Z,0.70
2018-12-04T02:20:42.275Z,0.70
2018-12-04T02:23:11.265Z,0.80
2018-12-04T02:25:40.354Z,0.80
2018-12-04T02:28:09.142Z,0.80
2018-12-04T02:30:37.888Z,0.60
2018-12-04T02:33:06.684Z,0.57
2018-12-04T02:35:35.621Z,0.70
2018-12-04T02:38:04.744Z,0.70
2018-12-04T02:40:33.918Z,0.80
2018-12-04T02:43:02.932Z,0.77
2018-12-04T02:45:31.890Z,0.70
2018-12-04T02:48:01.219Z,0.80
2018-12-04T02:50:29.991Z,0.70
2018-12-04T02:52:59.114Z,0.80
2018-12-04T02:55:27.903Z,0.70
2018-12-04T02:57:56.695Z,0.80
2018-12-04T03:00:25.692Z,0.60
2018-12-04T03:02:54.985Z,0.80
2018-12-04T03:05:23.738Z,0.70
2018-12-04T03:07:52.706Z,4.90
2018-12-04T03:10:21.660Z,0.80
2018-12-04T03:12:50.647Z,0.70
2018-12-04T03:15:19.955Z,0.70
2018-12-04T03:17:48.720Z,0.70
2018-12-04T03:20:17.658Z,0.70
2018-12-04T03:22:46.428Z,0.80
2018-12-04T03:25:15.372Z,0.70
2018-12-04T03:27:44.158Z,0.80
2018-12-04T03:30:13.158Z,0.70
2018-12-04T03:32:41.970Z,0.70
2018-12-04T03:35:11.281Z,0.70
2018-12-04T03:37:40.586Z,0.70
2018-12-04T03:40:09.883Z,0.70
2018-12-04T03:42:38.664Z,0.60
2018-12-04T03:45:07.445Z,0.70
2018-12-04T03:47:36.743Z,0.70
2018-12-04T03:50:06.158Z,0.70
2018-12-04T03:52:34.880Z,0.80
2018-12-04T03:55:03.661Z,0.70
2018-12-04T03:57:32.427Z,0.80
2018-12-04T04:00:01.550Z,0.60
2018-12-04T04:02:30.671Z,0.80
2018-12-04T04:04:59.543Z,0.83
2018-12-04T04:07:28.326Z,0.70
2018-12-04T04:09:57.578Z,0.77
2018-12-04T04:12:26.321Z,0.80
2018-12-04T04:14:55.082Z,0.70
2018-12-04T04:17:24.035Z,0.70
2018-12-04T04:19:52.991Z,0.70
2018-12-04T04:22:21.947Z,0.70
2018-12-04T04:24:50.723Z,0.80
2018-12-04T04:27:19.510Z,0.80
2018-12-04T04:29:48.312Z,0.87
2018-12-04T04:32:17.112Z,0.77
2018-12-04T04:34:46.233Z,0.70
2018-12-04T04:37:14.999Z,0.80
2018-12-04T04:39:43.788Z,0.70
2018-12-04T04:42:12.582Z,0.80
2018-12-04T04:44:41.541Z,0.70
2018-12-04T04:47:10.349Z,0.77
2018-12-04T04:49:39.138Z,0.70
2018-12-04T04:52:07.938Z,0.70
2018-12-04T04:54:37.225Z,0.70
2018-12-04T04:57:06.320Z,0.80
2018-12-04T04:59:35.105Z,0.70
2018-12-04T05:02:04.103Z,0.70
2018-12-04T05:04:33.198Z,0.87
2018-12-04T05:07:01.988Z,0.80
2018-12-04T05:09:31.104Z,0.80
2018-12-04T05:12:00.382Z,0.60
2018-12-04T05:14:29.158Z,0.70
2018-12-04T05:16:57.964Z,0.80
2018-12-04T05:19:26.805Z,0.70
2018-12-04T05:21:55.746Z,0.77
2018-12-04T05:24:24.551Z,0.80
2018-12-04T05:26:53.324Z,0.80
2018-12-04T05:29:22.112Z,0.80
2018-12-04T05:31:50.903Z,0.80
2018-12-04T05:34:19.684Z,0.60
2018-12-04T05:36:48.442Z,0.73
2018-12-04T05:39:17.210Z,0.73
2018-12-04T05:41:46.209Z,0.80
2018-12-04T05:44:14.999Z,0.70
2018-12-04T05:46:43.781Z,0.90
2018-12-04T05:49:12.597Z,0.80
2018-12-04T05:51:41.701Z,0.87
2018-12-04T05:54:14.116Z,0.70
2018-12-04T05:56:43.525Z,0.70
2018-12-04T05:59:12.725Z,0.73
2018-12-04T06:01:41.517Z,0.70
2018-12-04T06:04:10.273Z,0.70
2018-12-04T06:06:39.387Z,0.70
2018-12-04T06:09:08.529Z,0.70
2018-12-04T06:11:37.491Z,0.73
2018-12-04T06:14:06.298Z,0.77
2018-12-04T06:16:35.101Z,0.77
2018-12-04T06:19:04.434Z,0.80
2018-12-04T06:21:33.232Z,0.90
2018-12-04T06:24:02.236Z,0.70
2018-12-04T06:26:35.608Z,0.60
2018-12-04T06:29:04.688Z,0.70
2018-12-04T06:31:33.450Z,0.70
2018-12-04T06:34:02.284Z,0.80
2018-12-04T06:36:31.048Z,0.80
2018-12-04T06:38:59.893Z,0.80
2018-12-04T06:41:28.668Z,0.80
2018-12-04T06:43:57.670Z,0.73
2018-12-04T06:46:26.843Z,0.80
2018-12-04T06:48:55.830Z,0.80
2018-12-04T06:51:24.626Z,0.80
2018-12-04T06:53:53.413Z,0.70
2018-12-04T06:56:22.202Z,0.80
2018-12-04T06:58:50.967Z,0.83
2018-12-04T07:01:19.753Z,0.83
2018-12-04T07:03:48.521Z,0.80
2018-12-04T07:06:50.428Z,0.73
2018-12-04T07:09:19.351Z,0.80
2018-12-04T07:11:48.332Z,0.80
2018-12-04T07:14:17.193Z,0.70
2018-12-04T07:16:46.122Z,0.70
2018-12-04T07:19:15.045Z,0.80
2018-12-04T07:21:43.939Z,0.70
2018-12-04T07:24:12.899Z,0.80
2018-12-04T07:26:41.787Z,0.80
2018-12-04T07:29:10.768Z,0.70
2018-12-04T07:31:39.889Z,0.73
2018-12-04T07:34:08.841Z,0.73
2018-12-04T07:36:37.964Z,0.80
2018-12-04T07:39:08.159Z,0.80
2018-12-04T07:41:37.361Z,0.90
2018-12-04T07:44:06.703Z,0.90
2018-12-04T07:46:35.891Z,0.80
2018-12-04T07:49:04.786Z,0.70
2018-12-04T07:51:33.677Z,0.77
2018-12-04T07:54:02.540Z,0.80
2018-12-04T07:56:31.431Z,0.77
2018-12-04T07:59:00.367Z,0.77
2018-12-04T08:01:29.232Z,0.70
2018-12-04T08:03:58.443Z,0.80
2018-12-04T08:06:27.423Z,0.80
2018-12-04T08:08:56.438Z,0.80
2018-12-04T08:11:25.900Z,0.80
2018-12-04T08:13:54.768Z,0.80
2018-12-04T08:16:23.678Z,0.90
2018-12-04T08:18:52.787Z,0.63
2018-12-04T08:21:22.344Z,0.80
2018-12-04T08:23:51.181Z,0.83
2018-12-04T08:26:20.082Z,0.77
2018-12-04T08:28:48.973Z,0.83
2018-12-04T08:31:17.880Z,0.90
2018-12-04T08:33:47.248Z,0.80
2018-12-04T08:36:16.298Z,0.80
2018-12-04T08:38:45.311Z,0.70
2018-12-04T08:41:14.184Z,0.80
2018-12-04T08:43:43.358Z,0.70
2018-12-04T08:46:12.525Z,0.80
2018-12-04T08:48:41.413Z,0.90
2018-12-04T08:51:10.407Z,0.73
2018-12-04T08:53:39.540Z,0.80
2018-12-04T08:56:08.864Z,0.80
2018-12-04T08:58:37.929Z,0.80
2018-12-04T09:01:06.841Z,0.70
2018-12-04T09:03:35.720Z,0.83
2018-12-04T09:06:07.174Z,0.80
2018-12-04T09:08:36.134Z,0.77
2018-12-04T09:11:04.991Z,0.80
2018-12-04T09:13:33.869Z,0.80
2018-12-04T09:16:02.756Z,0.80
2018-12-04T09:18:31.622Z,0.90
2018-12-04T09:21:01.209Z,0.80
2018-12-04T09:23:30.318Z,0.77
2018-12-04T09:25:59.425Z,0.80
2018-12-04T09:28:28.680Z,0.70
2018-12-04T09:30:57.627Z,0.70
2018-12-04T09:33:26.582Z,0.80
2018-12-04T09:35:55.478Z,0.70
2018-12-04T09:38:24.792Z,0.70
2018-12-04T09:40:53.720Z,0.73
2018-12-04T09:43:22.613Z,0.80
2018-12-04T09:45:51.753Z,0.70
2018-12-04T09:48:20.796Z,0.80
2018-12-04T09:50:49.803Z,0.70
2018-12-04T09:53:18.714Z,1.57
2018-12-04T09:55:47.877Z,0.70
2018-12-04T09:58:16.964Z,0.70
2018-12-04T10:00:45.840Z,0.80
2018-12-04T10:03:14.727Z,0.73
2018-12-04T10:05:43.658Z,0.80
2018-12-04T10:08:12.796Z,0.80
2018-12-04T10:10:42.007Z,0.80
2018-12-04T10:13:10.945Z,0.80
2018-12-04T10:15:39.866Z,0.73
2018-12-04T10:18:08.713Z,0.70
2018-12-04T10:20:37.643Z,0.70
2018-12-04T10:23:06.959Z,0.70
2018-12-04T10:25:37.842Z,0.70
2018-12-04T10:28:06.689Z,0.60
2018-12-04T10:30:35.575Z,0.80
2018-12-04T10:33:04.997Z,0.80
2018-12-04T10:35:33.864Z,0.80
2018-12-04T10:38:02.795Z,0.70
2018-12-04T10:40:31.989Z,0.70
2018-12-04T10:43:00.869Z,0.70
2018-12-04T10:45:29.748Z,0.77
2018-12-04T10:47:58.616Z,0.70
2018-12-04T10:50:27.461Z,0.70
2018-12-04T10:52:56.572Z,0.90
2018-12-04T10:55:25.906Z,0.70
2018-12-04T10:57:55.340Z,0.70
2018-12-04T11:00:30.017Z,0.60
2018-12-04T11:03:04.148Z,0.70
2018-12-04T11:05:33.281Z,2.30
2018-12-04T11:08:02.175Z,5.37
2018-12-04T11:10:31.301Z,5.33
2018-12-04T11:13:00.221Z,4.53
2018-12-04T11:15:30.469Z,3.03
2018-12-04T11:17:59.874Z,2.30
2018-12-04T11:20:28.710Z,2.53
2018-12-04T11:22:57.684Z,1.80
2018-12-04T11:25:26.524Z,2.63
2018-12-04T11:27:55.395Z,3.97
2018-12-04T11:30:24.263Z,6.67
2018-12-04T11:32:53.558Z,3.40
2018-12-04T11:35:22.980Z,2.73
2018-12-04T11:37:51.896Z,7.60
2018-12-04T11:40:20.917Z,1.60
2018-12-04T11:42:49.785Z,2.00
2018-12-04T11:45:18.653Z,1.40
2018-12-04T11:47:47.516Z,2.37
2018-12-04T11:50:16.937Z,5.23
2018-12-04T11:52:46.216Z,2.10
2018-12-04T11:55:15.094Z,4.13
2018-12-04T11:57:45.324Z,2.20
2018-12-04T12:00:21.044Z,2.87
2018-12-04T12:02:49.936Z,4.57
2018-12-04T12:05:20.797Z,2.00
2018-12-04T12:07:50.167Z,1.73
2018-12-04T12:10:19.575Z,2.13
2018-12-04T12:12:48.459Z,1.17
2018-12-04T12:15:18.319Z,3.07
2018-12-04T12:17:48.199Z,1.93
2018-12-04T12:20:17.484Z,2.53
2018-12-04T12:22:46.594Z,1.40
2018-12-04T12:25:17.671Z,1.00
2018-12-04T12:27:48.169Z,1.10
2018-12-04T12:30:17.635Z,1.60
2018-12-04T12:32:47.496Z,1.33
2018-12-04T12:35:16.374Z,1.63
2018-12-04T12:37:45.252Z,2.73
2018-12-04T12:40:14.152Z,2.27
2018-12-04T12:42:43.032Z,1.57
2018-12-04T12:45:12.401Z,1.63
2018-12-04T12:47:41.276Z,2.30
2018-12-04T12:50:10.837Z,1.57
2018-12-04T12:52:40.153Z,3.00
2018-12-04T12:55:09.400Z,3.97
2018-12-04T12:57:54.711Z,2.77
2018-12-04T13:00:24.370Z,3.10
2018-12-04T13:02:53.211Z,2.07
2018-12-04T13:05:22.556Z,4.23
2018-12-04T13:07:51.518Z,3.43
2018-12-04T13:10:20.522Z,4.00
2018-12-04T13:12:49.364Z,4.83
2018-12-04T13:15:18.631Z,2.43
2018-12-04T13:17:47.537Z,2.10
2018-12-04T13:20:17.217Z,2.93
2018-12-04T13:22:46.581Z,2.97
2018-12-04T13:25:15.484Z,3.47
2018-12-04T13:27:44.673Z,3.10
2018-12-04T13:30:13.979Z,2.20
2018-12-04T13:32:42.901Z,3.93
2018-12-04T13:35:11.831Z,4.33
2018-12-04T13:37:40.717Z,4.10
2018-12-04T13:40:10.066Z,3.43
2018-12-04T13:42:39.203Z,2.17
2018-12-04T13:45:09.116Z,2.47
2018-12-04T13:47:38.079Z,5.93
2018-12-04T13:50:08.040Z,3.50
2018-12-04T13:52:37.363Z,2.83
2018-12-04T13:55:07.160Z,2.70
2018-12-04T13:57:36.137Z,3.80
2018-12-04T14:00:07.528Z,3.77
2018-12-04T14:02:36.897Z,2.43
2018-12-04T14:05:08.164Z,5.13
2018-12-04T14:07:37.501Z,2.43
2018-12-04T14:10:08.749Z,3.53
2018-12-04T14:12:37.876Z,3.37
2018-12-04T14:15:07.459Z,2.13
2018-12-04T14:17:37.002Z,4.87
2018-12-04T14:20:08.623Z,4.30
2018-12-04T14:22:38.338Z,2.70
2018-12-04T14:25:08.218Z,1.83
2018-12-04T14:27:37.135Z,3.57
2018-12-04T14:30:09.735Z,2.70
2018-12-04T14:32:39.158Z,2.00
2018-12-04T14:35:08.565Z,1.83
2018-12-04T14:37:37.464Z,2.00
2018-12-04T14:40:08.078Z,3.07
2018-12-04T14:42:37.638Z,2.50
2018-12-04T14:45:07.635Z,3.90
2018-12-04T14:47:36.732Z,3.40
2018-12-04T14:50:06.860Z,3.10
2018-12-04T14:52:39.945Z,3.17
2018-12-04T14:55:09.111Z,3.23
2018-12-04T14:57:37.980Z,2.10
2018-12-04T15:00:09.483Z,4.30
2018-12-04T15:02:38.744Z,2.93
2018-12-04T15:05:09.402Z,2.63
2018-12-04T15:07:39.019Z,2.47
2018-12-04T15:10:10.292Z,2.50
2018-12-04T15:12:39.637Z,3.77
2018-12-04T15:15:10.138Z,2.60
2018-12-04T15:17:39.029Z,5.83
2018-12-04T15:20:09.055Z,4.53
2018-12-04T15:22:38.752Z,7.77
2018-12-04T15:25:08.895Z,3.30
2018-12-04T15:27:38.215Z,4.73
2018-12-04T15:30:08.313Z,3.83
2018-12-04T15:32:38.067Z,2.40
2018-12-04T15:35:07.429Z,2.40
2018-12-04T15:37:36.830Z,2.77
2018-12-04T15:40:07.082Z,3.03
2018-12-04T15:42:36.609Z,6.13
2018-12-04T15:45:06.490Z,6.53
2018-12-04T15:47:35.962Z,7.83
2018-12-04T15:50:07.122Z,7.27
2018-12-04T15:52:37.177Z,7.87
2018-12-04T15:55:06.964Z,5.00
2018-12-04T15:57:36.088Z,3.03
2018-12-04T16:00:07.252Z,3.47
2018-12-04T16:02:36.153Z,3.83
2018-12-04T16:05:06.815Z,3.60
2018-12-04T16:07:35.766Z,4.37
2018-12-04T16:10:06.739Z,4.10
2018-12-04T16:12:37.241Z,3.77
2018-12-04T16:15:07.312Z,4.13
2018-12-04T16:17:38.775Z,4.87
2018-12-04T16:20:08.896Z,4.20
2018-12-04T16:22:40.196Z,3.43
2018-12-04T16:25:11.816Z,5.10
2018-12-04T16:27:42.497Z,3.93
2018-12-04T16:30:11.921Z,4.50
2018-12-04T16:32:40.826Z,5.47
2018-12-04T16:35:09.761Z,2.93
2018-12-04T16:37:39.133Z,3.50
2018-12-04T16:40:08.847Z,4.63
2018-12-04T16:42:37.852Z,4.23
2018-12-04T16:45:07.517Z,5.80
2018-12-04T16:47:36.572Z,4.80
2018-12-04T16:50:06.366Z,6.07
2018-12-04T16:52:35.545Z,6.70
2018-12-04T16:55:05.451Z,4.60
2018-12-04T16:57:34.782Z,5.77
2018-12-04T17:00:04.655Z,5.30
2018-12-04T17:02:34.217Z,5.57
2018-12-04T17:05:03.192Z,3.83
2018-12-04T17:07:32.163Z,3.57
2018-12-04T17:10:01.052Z,6.53
2018-12-04T17:12:29.942Z,5.20
2018-12-04T17:14:58.929Z,3.10
2018-12-04T17:17:27.842Z,5.17
2018-12-04T17:20:06.513Z,7.07
2018-12-04T17:22:35.421Z,4.47
2018-12-04T17:25:05.131Z,6.00
2018-12-04T17:27:34.024Z,4.93
2018-12-04T17:30:04.142Z,5.93
2018-12-04T17:32:33.578Z,5.93
2018-12-04T17:35:02.775Z,4.87
2018-12-04T17:37:32.134Z,5.60
2018-12-04T17:40:01.062Z,7.23
2018-12-04T17:42:29.944Z,7.03
2018-12-04T17:44:58.889Z,7.27
2018-12-04T17:47:27.929Z,11.57
2018-12-04T17:49:57.287Z,6.23
2018-12-04T17:52:28.872Z,9.57
2018-12-04T17:54:57.755Z,4.73
2018-12-04T17:57:26.802Z,3.73
2018-12-04T17:59:55.902Z,6.50
2018-12-04T18:02:24.811Z,6.40
2018-12-04T18:04:53.736Z,5.73
2018-12-04T18:07:22.641Z,5.93
2018-12-04T18:09:51.569Z,5.90
2018-12-04T18:12:20.503Z,7.37
2018-12-04T18:14:49.745Z,5.70
2018-12-04T18:17:18.694Z,8.27
2018-12-04T18:19:47.626Z,9.93
2018-12-04T18:22:16.580Z,7.30
2018-12-04T18:24:45.491Z,8.40
2018-12-04T18:27:14.462Z,5.87
2018-12-04T18:29:43.763Z,11.90
2018-12-04T18:32:13.064Z,7.53
2018-12-04T18:34:41.914Z,8.63
2018-12-04T18:37:10.809Z,6.73
2018-12-04T18:39:39.844Z,6.43
2018-12-04T18:42:08.734Z,10.87
2018-12-04T18:44:37.620Z,5.90
2018-12-04T18:47:06.584Z,11.57
2018-12-04T18:49:36.141Z,8.00
2018-12-04T18:52:05.453Z,8.17
2018-12-04T18:54:34.429Z,13.07
2018-12-04T18:57:03.872Z,10.50
2018-12-04T18:59:32.779Z,8.30
2018-12-04T19:02:01.637Z,8.30
2018-12-04T19:04:31.033Z,6.47
2018-12-04T19:06:59.909Z,6.70
2018-12-04T19:09:28.810Z,5.73
2018-12-04T19:11:58.119Z,10.03
2018-12-04T19:14:27.242Z,6.00
2018-12-04T19:16:56.642Z,7.30
2018-12-04T19:19:25.785Z,8.43
2018-12-04T19:21:54.978Z,8.40
2018-12-04T19:24:24.403Z,8.27
2018-12-04T19:26:53.349Z,6.70
2018-12-04T19:29:22.300Z,12.80
2018-12-04T19:31:51.195Z,8.23
2018-12-04T19:34:20.114Z,7.67
2018-12-04T19:36:49.035Z,10.53
2018-12-04T19:39:18.137Z,9.60
2018-12-04T19:41:47.632Z,8.70
2018-12-04T19:44:16.555Z,8.23
2018-12-04T19:46:48.413Z,8.30
2018-12-04T19:49:17.305Z,11.10
2018-12-04T19:51:46.195Z,9.80
2018-12-04T19:54:15.096Z,6.77
2018-12-04T19:56:43.990Z,14.37
2018-12-04T19:59:12.887Z,9.40
2018-12-04T20:01:41.777Z,11.50
2018-12-04T20:04:10.735Z,11.23
2018-12-04T20:06:39.933Z,13.83
2018-12-04T20:09:09.864Z,9.93
2018-12-04T20:11:38.761Z,9.10
2018-12-04T20:14:07.661Z,10.53
2018-12-04T20:16:36.555Z,11.30
2018-12-04T20:19:05.883Z,11.70
2018-12-04T20:21:34.837Z,11.30
2018-12-04T20:24:04.132Z,13.23
2018-12-04T20:26:33.045Z,12.57
2018-12-04T20:29:02.216Z,8.37
2018-12-04T20:31:31.142Z,12.00
2018-12-04T20:34:00.052Z,10.47
2018-12-04T20:36:29.005Z,9.87
2018-12-04T20:38:58.842Z,12.83
2018-12-04T20:41:27.744Z,9.93
2018-12-04T20:43:56.645Z,12.73
2018-12-04T20:46:26.100Z,10.63
2018-12-04T20:48:55.016Z,9.97
2018-12-04T20:51:24.641Z,20.07
2018-12-04T20:53:54.245Z,17.13
2018-12-04T20:56:23.144Z,12.40
2018-12-04T20:58:52.127Z,15.10
2018-12-04T21:01:21.336Z,11.87
2018-12-04T21:03:50.288Z,13.53
2018-12-04T21:06:19.477Z,14.87
2018-12-04T21:08:48.365Z,13.23
2018-12-04T21:11:21.018Z,11.20
2018-12-04T21:13:51.736Z,14.60
2018-12-04T21:16:20.871Z,9.00
2018-12-04T21:18:49.780Z,13.70
2018-12-04T21:21:18.818Z,24.60
2018-12-04T21:23:47.771Z,13.87
2018-12-04T21:26:16.768Z,16.57
2018-12-04T21:28:50.958Z,14.30
2018-12-04T21:31:25.238Z,20.00
2018-12-04T21:33:59.697Z,32.23
2018-12-04T21:38:36.038Z,131.50
2018-12-04T21:41:14.616Z,27.40
2018-12-04T21:43:48.996Z,23.13
2018-12-04T21:46:23.558Z,24.53
2018-12-04T21:48:52.531Z,32.20
2018-12-04T21:51:21.443Z,25.80
2018-12-04T21:53:50.330Z,26.27
2018-12-04T21:56:19.416Z,25.73
2018-12-04T21:58:48.362Z,23.37
2018-12-04T22:01:17.577Z,27.77
2018-12-04T22:03:46.609Z,20.27
2018-12-04T22:06:15.606Z,20.77
2018-12-04T22:08:44.496Z,18.73
2018-12-04T22:11:13.395Z,24.07
2018-12-04T22:13:42.369Z,21.67
2018-12-04T22:16:11.264Z,23.20
2018-12-04T22:18:40.193Z,24.13
2018-12-04T22:21:09.525Z,21.43
2018-12-04T22:23:38.416Z,20.33
2018-12-04T22:26:07.333Z,21.40
2018-12-04T22:28:36.245Z,31.27
2018-12-04T22:31:05.241Z,28.07
2018-12-04T22:33:34.294Z,25.10
2018-12-04T22:36:03.230Z,28.53
2018-12-04T22:38:32.110Z,24.00
2018-12-04T22:41:01.159Z,21.73
2018-12-04T22:43:30.008Z,27.17
2018-12-04T22:45:59.401Z,21.43
2018-12-04T22:48:28.301Z,21.37
2018-12-04T22:50:57.711Z,27.70
2018-12-04T22:53:26.724Z,19.83
2018-12-04T22:55:56.035Z,18.30
2018-12-04T22:58:25.052Z,16.90
2018-12-04T23:00:55.062Z,19.17
2018-12-04T23:03:23.973Z,21.57
2018-12-04T23:05:52.886Z,19.77
2018-12-04T23:08:21.780Z,19.27
2018-12-04T23:10:51.085Z,21.57
2018-12-04T23:13:19.963Z,26.00
2018-12-04T23:15:48.864Z,24.30
2018-12-04T23:18:18.189Z,22.53
2018-12-04T23:20:47.133Z,49.27
2018-12-04T23:23:16.049Z,50.17
2018-12-04T23:25:44.938Z,30.00
2018-12-04T23:28:13.822Z,55.57
2018-12-04T23:30:42.716Z,61.17
2018-12-04T23:33:11.613Z,53.60
2018-12-04T23:35:40.514Z,32.47
2018-12-04T23:38:09.391Z,27.50
2018-12-04T23:40:38.284Z,28.90
2018-12-04T23:43:07.579Z,23.57
2018-12-04T23:45:36.590Z,19.00
2018-12-04T23:48:05.469Z,22.10
2018-12-04T23:50:34.411Z,22.57
2018-12-04T23:53:03.308Z,18.17
2018-12-04T23:55:32.229Z,16.43
2018-12-04T23:58:01.131Z,19.60
